Time;durP1;ratioP1;P1;durP2;ratioP2;P2;SDS_P1;SDS_P2;PMS_P1;PMS_P2;Temp;Humidity;BMP_temperature;BMP_pressure;BME280_temperature;BME280_humidity;BME280_pressure;Samples;Min_cycle;Max_cycle;Signal;HPM_P1;HPM_P2
2021/12/01 00:02:27;;;;;;;1.35;1.05;;;5.00;99.90;;;;;;5083545;28;20201;-94
2021/12/01 00:05:02;;;;;;;0.82;0.82;;;5.00;99.90;;;;;;5085667;28;20263;-93
2021/12/01 00:07:30;;;;;;;1.00;0.80;;;4.90;99.90;;;;;;5062360;28;20197;-94
2021/12/01 00:09:57;;;;;;;1.23;0.90;;;4.90;99.90;;;;;;5079549;28;20224;-93
2021/12/01 00:12:24;;;;;;;0.90;0.90;;;4.90;99.90;;;;;;5076256;28;20280;-92
2021/12/01 00:14:51;;;;;;;1.10;1.00;;;4.80;99.90;;;;;;5079448;28;20542;-94
2021/12/01 00:17:18;;;;;;;1.15;0.90;;;4.80;99.90;;;;;;5078595;28;20204;-93
2021/12/01 00:19:44;;;;;;;1.60;1.13;;;4.80;99.90;;;;;;5076792;28;20295;-91
2021/12/01 00:22:13;;;;;;;0.82;0.82;;;4.70;99.90;;;;;;5070531;28;20292;-93
2021/12/01 00:24:40;;;;;;;1.27;0.93;;;4.70;99.90;;;;;;5083537;28;20188;-87
2021/12/01 00:27:07;;;;;;;1.30;1.10;;;4.70;99.90;;;;;;5091388;28;20211;-92
2021/12/01 00:29:35;;;;;;;1.63;1.15;;;4.70;99.90;;;;;;5088694;28;20274;-91
2021/12/01 00:32:02;;;;;;;1.20;1.10;;;4.70;99.90;;;;;;5068061;28;20257;-93
2021/12/01 00:34:28;;;;;;;1.10;1.00;;;4.70;99.90;;;;;;5085176;28;20203;-92
2021/12/01 00:36:55;;;;;;;1.58;1.10;;;4.60;99.90;;;;;;5077032;28;20204;-92
2021/12/01 00:39:24;;;;;;;1.17;0.98;;;4.60;99.90;;;;;;5076110;28;20288;-92
2021/12/01 00:41:52;;;;;;;1.30;1.20;;;4.60;99.90;;;;;;5071996;28;20193;-91
2021/12/01 00:44:20;;;;;;;1.75;1.20;;;4.60;99.90;;;;;;5076930;28;20220;-92
2021/12/01 00:46:54;;;;;;;2.80;1.20;;;4.60;99.90;;;;;;5077760;28;20275;-92
2021/12/01 00:49:21;;;;;;;1.20;1.10;;;4.60;99.90;;;;;;5087767;28;20316;-92
2021/12/01 00:51:48;;;;;;;1.17;1.08;;;4.60;99.90;;;;;;5067841;28;20279;-92
2021/12/01 00:54:17;;;;;;;1.42;1.33;;;4.60;99.90;;;;;;5057498;28;20192;-91
2021/12/01 00:56:45;;;;;;;1.33;1.20;;;4.60;99.90;;;;;;5077276;28;20205;-92
2021/12/01 00:59:13;;;;;;;1.30;1.10;;;4.60;99.90;;;;;;5076391;28;20575;-92
2021/12/01 01:01:40;;;;;;;1.30;0.95;;;4.60;99.90;;;;;;5077641;28;20207;-92
2021/12/01 01:04:07;;;;;;;1.23;1.13;;;4.50;99.90;;;;;;5076241;28;20201;-92
2021/12/01 01:06:34;;;;;;;1.30;1.20;;;4.60;99.90;;;;;;5076273;28;20295;-91
2021/12/01 01:09:05;;;;;;;1.35;1.13;;;4.60;99.90;;;;;;5085352;28;20232;-92
2021/12/01 01:17:06;;;;;;;1.10;1.00;;;4.60;99.90;;;;;;5074263;28;20262;-94
2021/12/01 01:19:33;;;;;;;2.95;1.00;;;4.60;99.90;;;;;;5073493;28;20216;-92
2021/12/01 01:22:00;;;;;;;1.10;0.98;;;4.60;99.90;;;;;;5075308;28;20193;-91
2021/12/01 01:24:28;;;;;;;1.15;0.80;;;4.60;99.90;;;;;;5076583;28;20609;-88
2021/12/01 01:26:56;;;;;;;1.45;0.80;;;4.50;99.90;;;;;;5062329;28;20207;-87
2021/12/01 01:29:26;;;;;;;1.02;0.95;;;4.50;99.90;;;;;;5061738;28;20287;-87
2021/12/01 01:31:56;;;;;;;1.73;1.10;;;4.50;99.90;;;;;;5074454;28;20670;-86
2021/12/01 01:34:24;;;;;;;0.90;0.90;;;4.50;99.90;;;;;;5055863;28;20196;-86
2021/12/01 01:36:51;;;;;;;0.90;0.90;;;4.40;99.90;;;;;;5081566;28;20208;-88
2021/12/01 01:39:18;;;;;;;1.27;1.00;;;4.40;99.90;;;;;;5077768;28;20252;-88
2021/12/01 01:41:45;;;;;;;1.00;1.00;;;4.40;99.90;;;;;;5071835;28;20644;-87
2021/12/01 01:44:13;;;;;;;1.63;1.00;;;4.40;99.90;;;;;;5082598;28;20274;-88
2021/12/01 01:46:42;;;;;;;1.10;1.00;;;4.40;99.90;;;;;;5056215;28;20420;-88
2021/12/01 01:49:16;;;;;;;1.27;1.02;;;4.40;99.90;;;;;;5030241;28;20286;-88
2021/12/01 01:51:43;;;;;;;1.20;1.10;;;4.40;99.90;;;;;;5073863;28;20303;-88
2021/12/01 01:54:12;;;;;;;2.20;1.30;;;4.40;99.90;;;;;;5071513;28;20203;-89
2021/12/01 01:56:40;;;;;;;1.55;1.10;;;4.40;99.90;;;;;;5077059;28;20220;-88
2021/12/01 01:59:08;;;;;;;1.20;0.98;;;4.40;99.90;;;;;;5057213;28;20315;-88
2021/12/01 02:01:53;;;;;;;1.17;1.08;;;4.40;99.90;;;;;;5073490;28;20238;-87
2021/12/01 02:04:23;;;;;;;1.23;1.00;;;4.40;99.90;;;;;;5024270;28;20246;-88
2021/12/01 02:06:50;;;;;;;1.30;1.20;;;4.40;99.90;;;;;;5070536;28;20688;-89
2021/12/01 02:09:20;;;;;;;1.35;1.20;;;4.50;99.90;;;;;;5081175;28;20263;-88
2021/12/01 02:11:48;;;;;;;1.48;1.38;;;4.50;99.90;;;;;;5071418;28;20196;-88
2021/12/01 02:14:16;;;;;;;1.30;1.20;;;4.60;99.90;;;;;;5068966;28;20246;-88
2021/12/01 02:16:43;;;;;;;1.10;1.10;;;4.60;99.90;;;;;;5073391;28;20193;-89
2021/12/01 02:19:10;;;;;;;1.33;1.23;;;4.60;99.90;;;;;;5073372;28;20717;-87
2021/12/01 02:21:39;;;;;;;1.20;1.10;;;4.60;99.90;;;;;;5072448;28;20667;-88
2021/12/01 02:24:07;;;;;;;1.80;1.70;;;4.60;99.90;;;;;;5050479;28;20620;-88
2021/12/01 02:26:38;;;;;;;1.20;1.10;;;4.70;99.90;;;;;;5077438;28;20200;-89
2021/12/01 02:29:07;;;;;;;1.30;1.10;;;4.70;99.90;;;;;;5071781;28;20660;-88
2021/12/01 02:31:36;;;;;;;1.42;1.33;;;4.70;99.90;;;;;;5069355;28;20220;-88
2021/12/01 02:34:04;;;;;;;1.67;1.58;;;4.70;99.90;;;;;;5073391;28;20652;-89
2021/12/01 02:36:32;;;;;;;1.30;1.20;;;4.80;99.90;;;;;;5073323;28;20196;-90
2021/12/01 02:39:02;;;;;;;1.40;1.30;;;4.80;99.90;;;;;;5071934;28;20232;-89
2021/12/01 02:41:32;;;;;;;1.60;1.50;;;4.80;99.90;;;;;;5065801;28;20192;-89
2021/12/01 02:44:01;;;;;;;1.50;1.40;;;4.80;99.90;;;;;;5073073;28;20203;-88
2021/12/01 02:46:28;;;;;;;1.83;1.50;;;4.80;99.90;;;;;;5072449;28;20636;-89
2021/12/01 02:48:56;;;;;;;1.30;1.20;;;4.90;99.90;;;;;;5041235;28;20232;-89
2021/12/01 02:51:27;;;;;;;1.40;1.17;;;4.90;99.90;;;;;;5072012;28;20551;-89
2021/12/01 02:54:11;;;;;;;1.30;1.20;;;4.90;99.90;;;;;;5073342;28;20247;-89
2021/12/01 02:56:46;;;;;;;1.65;1.40;;;4.90;99.90;;;;;;5043941;28;20306;-89
2021/12/01 02:59:14;;;;;;;1.73;1.30;;;4.90;99.90;;;;;;5054492;28;20218;-89
2021/12/01 03:01:42;;;;;;;1.55;1.20;;;4.90;99.90;;;;;;5076371;28;20192;-90
2021/12/01 03:04:09;;;;;;;1.70;1.38;;;4.90;99.90;;;;;;5076183;28;20205;-89
2021/12/01 03:06:36;;;;;;;1.70;1.17;;;5.00;99.90;;;;;;5056907;28;20188;-90
2021/12/01 03:09:05;;;;;;;1.55;1.30;;;5.00;99.90;;;;;;5062995;28;20287;-90
2021/12/01 03:11:35;;;;;;;1.50;1.13;;;5.10;99.90;;;;;;5054024;28;20291;-90
2021/12/01 03:14:07;;;;;;;1.30;1.20;;;5.10;99.90;;;;;;5055542;28;20196;-90
2021/12/01 03:16:35;;;;;;;1.42;0.93;;;5.10;99.90;;;;;;5087880;28;20196;-89
2021/12/01 03:19:03;;;;;;;1.10;0.90;;;5.10;99.90;;;;;;5091830;28;20296;-89
2021/12/01 03:21:30;;;;;;;1.90;1.10;;;5.10;99.90;;;;;;5077367;28;20196;-89
2021/12/01 03:23:58;;;;;;;1.10;1.00;;;5.10;99.90;;;;;;5082886;28;20239;-89
2021/12/01 03:26:25;;;;;;;1.42;0.95;;;5.20;99.90;;;;;;5071215;28;20224;-90
2021/12/01 03:28:53;;;;;;;1.30;1.20;;;5.20;99.90;;;;;;5062376;28;20247;-90
2021/12/01 03:31:31;;;;;;;1.13;1.10;;;5.20;99.90;;;;;;5074595;28;20299;-90
2021/12/01 03:33:58;;;;;;;1.20;1.10;;;5.20;99.90;;;;;;5071851;28;20198;-90
2021/12/01 03:36:25;;;;;;;1.25;1.10;;;5.20;99.90;;;;;;5072626;28;20602;-90
2021/12/01 03:38:52;;;;;;;1.30;1.20;;;5.20;99.90;;;;;;5050523;28;20213;-90
2021/12/01 03:41:19;;;;;;;1.52;1.40;;;5.20;99.90;;;;;;5074345;28;20203;-90
2021/12/01 03:43:46;;;;;;;1.15;1.00;;;5.30;99.90;;;;;;5065951;28;20284;-90
2021/12/01 03:46:16;;;;;;;1.20;1.10;;;5.30;99.90;;;;;;5076014;28;20196;-90
2021/12/01 03:48:43;;;;;;;1.30;1.20;;;5.30;99.90;;;;;;5063105;28;20212;-89
2021/12/01 03:51:10;;;;;;;1.25;1.15;;;5.30;99.90;;;;;;5071744;28;20200;-90
2021/12/01 03:53:37;;;;;;;1.35;1.23;;;5.30;99.90;;;;;;5060789;28;20197;-89
2021/12/01 03:56:04;;;;;;;1.48;1.20;;;5.40;99.90;;;;;;5066660;28;20197;-89
2021/12/01 03:58:32;;;;;;;1.30;1.15;;;5.40;99.90;;;;;;5069835;28;20216;-89
2021/12/01 04:00:58;;;;;;;1.30;1.20;;;5.40;99.90;;;;;;5044864;28;20203;-89
2021/12/01 04:03:27;;;;;;;2.70;1.30;;;5.30;99.90;;;;;;5066965;28;20197;-88
2021/12/01 04:05:54;;;;;;;0.90;0.90;;;5.30;99.90;;;;;;5068878;28;20204;-89
2021/12/01 04:08:21;;;;;;;1.40;1.20;;;5.30;99.90;;;;;;5071428;28;20223;-89
2021/12/01 04:10:48;;;;;;;1.80;1.30;;;5.30;99.90;;;;;;5074088;28;20220;-89
2021/12/01 04:13:15;;;;;;;1.25;1.15;;;5.40;99.90;;;;;;5076149;28;20196;-89
2021/12/01 04:15:42;;;;;;;1.10;1.00;;;5.40;99.90;;;;;;5070028;28;20205;-89
2021/12/01 04:18:09;;;;;;;1.20;1.10;;;5.40;99.90;;;;;;5050970;28;20255;-89
2021/12/01 04:20:37;;;;;;;1.25;1.15;;;5.40;99.90;;;;;;5077312;28;20299;-89
2021/12/01 04:23:05;;;;;;;1.35;1.25;;;5.40;99.90;;;;;;5081250;28;20209;-88
2021/12/01 04:25:33;;;;;;;1.15;1.05;;;5.40;99.90;;;;;;5073568;28;20192;-89
2021/12/01 04:28:00;;;;;;;1.55;1.20;;;5.40;99.90;;;;;;5081138;28;20223;-88
2021/12/01 04:30:27;;;;;;;1.30;1.20;;;5.40;99.90;;;;;;5076035;28;20224;-88
2021/12/01 04:32:56;;;;;;;1.40;1.10;;;5.40;99.90;;;;;;5075594;28;20197;-89
2021/12/01 04:35:25;;;;;;;1.77;1.67;;;5.50;99.90;;;;;;5070999;28;20291;-89
2021/12/01 04:37:55;;;;;;;1.63;1.33;;;5.50;99.90;;;;;;5075707;28;20217;-89
2021/12/01 04:40:25;;;;;;;1.38;1.05;;;5.50;99.90;;;;;;5074869;28;20637;-88
2021/12/01 04:42:52;;;;;;;1.20;1.10;;;5.60;99.90;;;;;;5075210;28;20196;-90
2021/12/01 04:45:19;;;;;;;1.42;1.10;;;5.60;99.90;;;;;;5058911;28;20201;-88
2021/12/01 04:47:48;;;;;;;1.20;1.10;;;5.70;99.90;;;;;;5075211;28;20216;-89
2021/12/01 04:50:17;;;;;;;1.20;1.10;;;5.70;99.90;;;;;;5075048;28;20251;-89
2021/12/01 04:52:44;;;;;;;1.13;1.05;;;5.80;99.90;;;;;;5073622;28;20201;-89
2021/12/01 04:55:14;;;;;;;1.13;1.00;;;5.80;99.90;;;;;;5072256;28;20250;-89
2021/12/01 04:57:43;;;;;;;1.27;1.17;;;5.80;99.90;;;;;;5067361;28;20608;-89
2021/12/01 05:00:14;;;;;;;1.15;1.05;;;5.80;99.90;;;;;;5058405;28;20199;-88
2021/12/01 05:02:41;;;;;;;1.45;1.35;;;5.80;99.90;;;;;;5074172;28;20193;-89
2021/12/01 05:05:08;;;;;;;1.30;1.15;;;5.80;99.90;;;;;;5082797;28;20196;-89
2021/12/01 05:07:35;;;;;;;1.50;1.40;;;5.70;99.90;;;;;;5074049;28;20228;-88
2021/12/01 05:10:03;;;;;;;1.20;1.10;;;5.70;99.90;;;;;;5073771;28;20224;-89
2021/12/01 05:12:31;;;;;;;1.95;1.80;;;5.70;99.90;;;;;;5075140;28;20267;-89
2021/12/01 05:14:58;;;;;;;1.50;1.30;;;5.70;99.90;;;;;;5073129;28;20203;-89
2021/12/01 05:17:25;;;;;;;1.20;1.10;;;5.70;99.90;;;;;;5073802;28;20217;-88
2021/12/01 05:19:52;;;;;;;1.30;1.20;;;5.70;99.90;;;;;;5063976;28;20232;-78
2021/12/01 05:22:56;;;;;;;1.38;1.25;;;5.70;99.90;;;;;;5065480;28;20193;-90
2021/12/01 05:25:23;;;;;;;1.30;1.10;;;5.70;99.90;;;;;;5060796;28;20208;-87
2021/12/01 05:27:52;;;;;;;1.40;1.30;;;5.70;99.90;;;;;;5071804;28;20218;-86
2021/12/01 05:30:20;;;;;;;1.27;1.15;;;5.70;99.90;;;;;;5070037;28;20213;-88
2021/12/01 05:32:47;;;;;;;2.25;1.50;;;5.70;99.90;;;;;;5064456;28;20200;-85
2021/12/01 05:35:14;;;;;;;1.20;1.10;;;5.70;99.90;;;;;;5068445;28;20284;-86
2021/12/01 05:37:41;;;;;;;1.55;1.45;;;5.80;99.90;;;;;;5069077;28;20299;-85
2021/12/01 05:40:10;;;;;;;1.08;1.08;;;5.80;99.90;;;;;;5069897;28;20232;-91
2021/12/01 05:42:49;;;;;;;1.40;1.30;;;5.80;99.90;;;;;;5073517;28;20192;-91
2021/12/01 05:45:17;;;;;;;1.70;1.17;;;5.80;99.90;;;;;;5065171;28;20196;-89
2021/12/01 05:47:44;;;;;;;1.50;1.10;;;5.90;99.90;;;;;;5071260;28;20784;-86
2021/12/01 05:50:12;;;;;;;1.20;1.10;;;5.90;99.90;;;;;;5069607;28;20220;-89
2021/12/01 05:52:39;;;;;;;1.25;1.00;;;5.90;99.90;;;;;;5073905;28;20242;-87
2021/12/01 05:55:07;;;;;;;1.40;1.30;;;5.90;99.90;;;;;;5069840;28;20205;-87
2021/12/01 05:57:34;;;;;;;1.65;1.40;;;5.90;99.90;;;;;;5073221;28;20220;-83
2021/12/01 06:00:02;;;;;;;1.50;1.20;;;5.80;99.90;;;;;;5070627;28;20196;-89
2021/12/01 06:02:30;;;;;;;1.33;1.23;;;5.90;99.90;;;;;;5068392;28;20193;-88
2021/12/01 06:04:57;;;;;;;1.30;1.20;;;6.00;99.90;;;;;;5069725;28;20203;-88
2021/12/01 06:07:24;;;;;;;2.05;1.05;;;6.00;99.90;;;;;;5070936;28;20236;-88
2021/12/01 06:09:52;;;;;;;1.63;1.02;;;6.00;99.90;;;;;;5074350;28;20232;-87
2021/12/01 06:12:19;;;;;;;1.00;0.90;;;6.00;99.90;;;;;;5062615;28;20197;-80
2021/12/01 06:14:46;;;;;;;1.45;1.25;;;6.10;99.90;;;;;;5072602;28;20644;-83
2021/12/01 06:17:15;;;;;;;1.20;1.10;;;6.10;99.90;;;;;;5064544;28;20683;-82
2021/12/01 06:19:43;;;;;;;2.00;1.02;;;6.20;99.90;;;;;;5075973;28;20668;-84
2021/12/01 06:22:10;;;;;;;1.00;0.90;;;6.20;99.90;;;;;;5066303;28;20258;-85
2021/12/01 06:24:37;;;;;;;1.52;0.70;;;6.20;99.90;;;;;;5040851;28;20204;-80
2021/12/01 06:27:04;;;;;;;1.77;0.80;;;6.20;99.90;;;;;;5061795;28;20218;-80
2021/12/01 06:29:31;;;;;;;0.73;0.70;;;6.30;99.90;;;;;;5070104;28;20197;-81
2021/12/01 06:31:58;;;;;;;0.70;0.60;;;6.30;99.90;;;;;;5067715;28;20251;-81
2021/12/01 06:34:25;;;;;;;1.50;1.10;;;6.30;99.90;;;;;;5068454;28;20636;-81
2021/12/01 06:36:53;;;;;;;0.80;0.80;;;6.30;99.90;;;;;;5068931;28;20275;-81
2021/12/01 06:39:20;;;;;;;0.80;0.77;;;6.30;99.90;;;;;;5070101;28;20559;-81
2021/12/01 06:41:47;;;;;;;0.80;0.80;;;6.40;99.90;;;;;;5064752;28;20648;-81
2021/12/01 06:44:15;;;;;;;1.10;0.80;;;6.40;99.90;;;;;;5055390;28;20245;-81
2021/12/01 06:46:42;;;;;;;1.48;1.00;;;6.40;99.90;;;;;;5057198;28;20201;-81
2021/12/01 06:49:09;;;;;;;1.20;0.77;;;6.40;99.90;;;;;;5061160;28;20234;-80
2021/12/01 06:51:36;;;;;;;1.67;0.77;;;6.40;99.90;;;;;;5061780;28;20264;-80
2021/12/01 06:54:05;;;;;;;1.67;0.70;;;6.40;99.90;;;;;;5061454;28;20266;-80
2021/12/01 06:56:33;;;;;;;0.80;0.80;;;6.40;99.90;;;;;;5061493;28;20203;-80
2021/12/01 06:59:04;;;;;;;0.98;0.90;;;6.40;99.90;;;;;;5054987;28;20204;-81
2021/12/01 07:01:30;;;;;;;1.50;1.08;;;6.40;99.90;;;;;;5058637;28;20200;-80
2021/12/01 07:03:58;;;;;;;1.20;0.80;;;6.40;99.90;;;;;;5048222;28;20299;-81
2021/12/01 07:06:25;;;;;;;0.90;0.60;;;6.60;99.90;;;;;;5069851;28;20200;-81
2021/12/01 07:08:52;;;;;;;1.60;0.80;;;6.50;99.90;;;;;;5065368;28;20299;-80
2021/12/01 07:11:20;;;;;;;0.98;0.88;;;6.60;99.90;;;;;;5061287;28;20235;-81
2021/12/01 07:13:47;;;;;;;0.75;0.70;;;6.60;99.90;;;;;;5063065;28;20207;-80
2021/12/01 07:16:14;;;;;;;0.98;0.88;;;6.70;99.90;;;;;;5070008;28;20303;-80
2021/12/01 07:18:41;;;;;;;1.30;0.73;;;6.70;99.90;;;;;;5071094;28;20303;-81
2021/12/01 07:21:08;;;;;;;2.05;1.13;;;6.70;99.90;;;;;;5069762;28;20204;-80
2021/12/01 07:23:35;;;;;;;1.48;0.80;;;6.80;99.90;;;;;;5076871;28;20200;-80
2021/12/01 07:26:02;;;;;;;1.00;0.90;;;6.90;99.90;;;;;;5058872;28;20286;-80
2021/12/01 07:28:31;;;;;;;2.15;0.80;;;6.90;99.90;;;;;;5059943;28;20314;-80
2021/12/01 07:30:58;;;;;;;1.10;0.70;;;6.90;99.90;;;;;;5072360;28;20326;-80
2021/12/01 07:33:25;;;;;;;1.10;0.80;;;6.90;99.90;;;;;;5060353;28;20517;-80
2021/12/01 07:35:53;;;;;;;1.10;0.80;;;6.90;99.90;;;;;;5059543;28;20219;-80
2021/12/01 07:38:19;;;;;;;1.60;0.70;;;6.90;99.90;;;;;;5059727;28;20227;-80
2021/12/01 07:40:46;;;;;;;1.58;1.00;;;7.00;99.90;;;;;;5058763;28;20192;-79
2021/12/01 07:43:13;;;;;;;0.90;0.70;;;7.00;99.90;;;;;;5059965;28;20236;-80
2021/12/01 07:45:43;;;;;;;2.97;1.08;;;7.00;99.90;;;;;;5058322;28;20564;-79
2021/12/01 07:48:11;;;;;;;1.10;1.00;;;7.20;99.90;;;;;;5065168;28;20712;-80
2021/12/01 07:50:38;;;;;;;1.10;0.85;;;7.10;99.90;;;;;;5056875;28;20790;-80
2021/12/01 07:53:05;;;;;;;1.08;0.80;;;7.10;99.90;;;;;;5061223;28;20201;-80
2021/12/01 07:55:31;;;;;;;1.35;0.93;;;7.10;99.90;;;;;;5059891;28;20658;-80
2021/12/01 07:57:58;;;;;;;1.63;0.77;;;7.10;99.90;;;;;;5061296;28;20262;-80
2021/12/01 08:00:26;;;;;;;1.77;0.80;;;7.20;99.90;;;;;;5060922;28;20588;-79
2021/12/01 08:02:55;;;;;;;2.35;0.70;;;7.20;99.90;;;;;;5060231;28;20239;-79
2021/12/01 08:05:22;;;;;;;1.63;0.80;;;7.20;99.90;;;;;;5060266;28;20207;-79
2021/12/01 08:07:50;;;;;;;2.00;0.80;;;7.30;99.90;;;;;;5060538;28;21074;-79
2021/12/01 08:10:18;;;;;;;1.17;0.70;;;7.30;99.90;;;;;;5066172;28;20222;-79
2021/12/01 08:12:45;;;;;;;0.90;0.65;;;7.30;99.90;;;;;;5060474;28;20200;-79
2021/12/01 08:15:12;;;;;;;0.60;0.60;;;7.30;99.90;;;;;;5070574;28;20197;-79
2021/12/01 08:17:38;;;;;;;0.80;0.60;;;7.30;99.90;;;;;;5061949;28;20291;-79
2021/12/01 08:20:08;;;;;;;1.13;0.57;;;7.40;99.90;;;;;;5059404;28;20603;-80
2021/12/01 08:22:35;;;;;;;0.70;0.60;;;7.40;99.90;;;;;;5059030;28;20204;-79
2021/12/01 08:25:02;;;;;;;0.70;0.60;;;7.40;99.90;;;;;;5058972;28;20263;-79
2021/12/01 08:27:29;;;;;;;1.63;0.73;;;7.50;99.90;;;;;;5061853;28;20216;-79
2021/12/01 08:29:57;;;;;;;0.88;0.60;;;7.50;99.90;;;;;;5059170;28;20201;-79
2021/12/01 08:32:24;;;;;;;1.90;0.70;;;7.50;99.90;;;;;;5057821;28;20255;-78
2021/12/01 08:34:51;;;;;;;0.70;0.65;;;7.60;99.90;;;;;;5064937;28;20243;-78
2021/12/01 08:37:21;;;;;;;0.95;0.80;;;7.60;99.90;;;;;;5059636;28;20227;-78
2021/12/01 08:39:49;;;;;;;1.45;0.65;;;7.70;99.90;;;;;;5061061;28;20283;-78
2021/12/01 08:42:17;;;;;;;1.60;0.65;;;7.70;99.90;;;;;;5061183;28;20196;-78
2021/12/01 08:44:45;;;;;;;1.10;0.63;;;7.80;99.90;;;;;;5061394;28;20223;-79
2021/12/01 08:47:12;;;;;;;1.17;0.68;;;8.00;99.90;;;;;;5060951;28;20221;-79
2021/12/01 08:49:39;;;;;;;0.80;0.47;;;8.10;99.90;;;;;;5063928;28;20283;-80
2021/12/01 08:52:07;;;;;;;1.00;0.73;;;8.20;99.90;;;;;;5060399;28;20316;-79
2021/12/01 08:54:36;;;;;;;1.08;0.60;;;8.30;99.90;;;;;;5061052;28;20218;-79
2021/12/01 08:57:03;;;;;;;1.10;0.60;;;8.40;99.90;;;;;;5063456;28;20221;-80
2021/12/01 08:59:30;;;;;;;0.60;0.50;;;8.60;99.90;;;;;;5074299;28;20219;-81
2021/12/01 09:01:57;;;;;;;2.13;0.60;;;8.90;99.90;;;;;;5086059;28;20204;-80
2021/12/01 09:04:24;;;;;;;0.80;0.50;;;9.50;99.90;;;;;;5072329;28;20295;-81
2021/12/01 09:06:51;;;;;;;0.55;0.50;;;9.90;99.90;;;;;;5066808;28;20278;-80
2021/12/01 09:09:19;;;;;;;0.60;0.50;;;10.30;99.90;;;;;;5062110;28;20197;-80
2021/12/01 09:11:49;;;;;;;1.13;0.50;;;10.20;99.90;;;;;;5062671;28;20224;-81
2021/12/01 09:14:16;;;;;;;0.80;0.50;;;9.90;99.90;;;;;;5068050;28;20231;-81
2021/12/01 09:16:43;;;;;;;1.52;0.70;;;9.60;99.90;;;;;;5060917;28;20215;-81
2021/12/01 09:19:10;;;;;;;0.93;0.60;;;9.30;99.90;;;;;;5064374;28;20197;-81
2021/12/01 09:21:37;;;;;;;0.80;0.60;;;9.20;99.90;;;;;;5068044;28;20197;-80
2021/12/01 09:24:05;;;;;;;1.33;0.60;;;9.10;99.90;;;;;;5066904;28;20204;-81
2021/12/01 09:26:32;;;;;;;0.80;0.50;;;8.90;99.90;;;;;;5073658;28;20212;-81
2021/12/01 09:29:01;;;;;;;0.70;0.50;;;8.90;99.90;;;;;;5067083;28;20207;-81
2021/12/01 09:31:28;;;;;;;0.70;0.60;;;8.80;99.90;;;;;;5064582;28;20227;-81
2021/12/01 09:33:55;;;;;;;0.60;0.50;;;8.80;99.90;;;;;;5067387;28;20210;-81
2021/12/01 09:36:23;;;;;;;0.98;0.50;;;8.80;99.90;;;;;;5067565;28;20216;-81
2021/12/01 09:38:50;;;;;;;0.93;0.60;;;8.80;99.90;;;;;;5064486;28;20200;-81
2021/12/01 09:41:17;;;;;;;0.80;0.50;;;8.80;99.90;;;;;;5069092;28;20200;-81
2021/12/01 09:43:45;;;;;;;1.25;0.50;;;8.80;99.90;;;;;;5069549;28;20663;-82
2021/12/01 09:46:13;;;;;;;1.33;0.50;;;8.80;99.90;;;;;;5067148;28;20579;-81
2021/12/01 09:48:42;;;;;;;0.98;0.50;;;8.80;99.90;;;;;;5064777;28;20196;-81
2021/12/01 09:51:10;;;;;;;0.70;0.52;;;8.80;99.90;;;;;;5066103;28;20591;-81
2021/12/01 09:53:38;;;;;;;0.50;0.40;;;8.80;99.90;;;;;;5060984;28;20189;-81
2021/12/01 09:56:05;;;;;;;0.70;0.50;;;8.80;99.90;;;;;;5065586;28;20224;-81
2021/12/01 09:58:32;;;;;;;0.85;0.65;;;8.80;99.90;;;;;;5068609;28;20648;-81
2021/12/01 10:01:01;;;;;;;0.85;0.50;;;8.80;99.90;;;;;;5069555;28;21129;-81
2021/12/01 10:03:30;;;;;;;0.70;0.43;;;8.80;99.90;;;;;;5058973;28;20208;-82
2021/12/01 10:06:06;;;;;;;0.70;0.47;;;8.80;99.90;;;;;;5068293;28;20293;-81
2021/12/01 10:08:36;;;;;;;0.65;0.50;;;8.80;99.90;;;;;;5070048;28;20303;-81
2021/12/01 10:11:05;;;;;;;1.10;0.55;;;8.90;99.90;;;;;;5068107;28;20212;-81
2021/12/01 10:13:34;;;;;;;1.02;0.60;;;8.90;99.90;;;;;;5077098;28;20296;-82
2021/12/01 10:16:05;;;;;;;0.70;0.60;;;8.90;99.90;;;;;;5070181;28;20207;-82
2021/12/01 10:18:39;;;;;;;0.90;0.60;;;8.90;99.90;;;;;;5068082;28;20288;-81
2021/12/01 10:21:09;;;;;;;0.85;0.50;;;9.00;99.90;;;;;;5069582;28;20284;-80
2021/12/01 10:23:38;;;;;;;1.63;0.47;;;9.00;99.90;;;;;;5068866;28;20647;-81
2021/12/01 10:26:17;;;;;;;0.80;0.57;;;9.00;99.90;;;;;;5071622;28;20212;-81
2021/12/01 10:28:48;;;;;;;0.80;0.40;;;9.00;99.90;;;;;;5079418;28;20731;-82
2021/12/01 10:31:15;;;;;;;1.02;0.60;;;9.10;99.90;;;;;;5068059;28;20233;-81
2021/12/01 10:33:43;;;;;;;0.60;0.50;;;9.10;99.90;;;;;;5071094;28;20210;-81
2021/12/01 10:36:11;;;;;;;0.80;0.50;;;9.20;99.90;;;;;;5077235;28;20221;-81
2021/12/01 10:38:43;;;;;;;0.63;0.60;;;9.20;99.90;;;;;;5070097;28;20294;-83
2021/12/01 10:41:13;;;;;;;0.70;0.60;;;9.20;99.90;;;;;;5064196;28;20197;-83
2021/12/01 10:43:44;;;;;;;0.50;0.40;;;9.20;99.90;;;;;;5055796;28;20194;-83
2021/12/01 10:46:14;;;;;;;0.73;0.50;;;9.30;99.90;;;;;;5064451;28;20220;-82
2021/12/01 10:48:43;;;;;;;1.58;0.60;;;9.30;99.90;;;;;;5064529;28;20288;-82
2021/12/01 10:51:13;;;;;;;0.60;0.50;;;9.30;99.90;;;;;;5067272;28;20642;-82
2021/12/01 10:53:41;;;;;;;0.60;0.50;;;9.30;99.90;;;;;;5066301;28;20332;-82
2021/12/01 10:56:09;;;;;;;1.80;0.60;;;9.30;99.90;;;;;;5057940;28;20213;-83
2021/12/01 10:58:37;;;;;;;0.60;0.40;;;9.40;99.90;;;;;;5069814;28;20663;-82
2021/12/01 11:01:07;;;;;;;0.60;0.50;;;9.40;99.90;;;;;;5063593;28;20651;-82
2021/12/01 11:03:35;;;;;;;0.70;0.50;;;9.40;99.90;;;;;;5065141;28;20239;-82
2021/12/01 11:06:14;;;;;;;0.80;0.50;;;9.40;99.90;;;;;;5067680;28;20278;-83
2021/12/01 11:08:42;;;;;;;0.60;0.50;;;9.40;99.90;;;;;;5062277;28;20283;-82
2021/12/01 11:11:12;;;;;;;1.00;0.40;;;9.30;99.90;;;;;;5040430;28;20203;-83
2021/12/01 11:13:40;;;;;;;0.88;0.50;;;9.30;99.90;;;;;;5068331;28;20193;-83
2021/12/01 11:16:10;;;;;;;0.90;0.40;;;9.30;99.90;;;;;;5066354;28;20212;-83
2021/12/01 11:18:39;;;;;;;1.05;0.50;;;9.30;99.90;;;;;;5065329;28;20196;-82
2021/12/01 11:21:13;;;;;;;0.60;0.40;;;9.30;99.90;;;;;;5060857;28;20209;-82
2021/12/01 11:23:42;;;;;;;0.70;0.50;;;9.10;99.90;;;;;;5063890;28;20208;-83
2021/12/01 11:26:12;;;;;;;0.70;0.55;;;9.00;99.90;;;;;;5070681;28;20641;-83
2021/12/01 11:28:41;;;;;;;0.80;0.68;;;9.00;99.90;;;;;;5067235;28;20189;-82
2021/12/01 11:31:11;;;;;;;0.93;0.60;;;9.10;99.90;;;;;;5063602;28;20211;-83
2021/12/01 11:33:43;;;;;;;0.60;0.50;;;9.10;99.90;;;;;;5063934;28;20224;-82
2021/12/01 11:36:14;;;;;;;0.60;0.55;;;9.10;99.90;;;;;;5071160;28;20217;-82
2021/12/01 11:38:42;;;;;;;0.88;0.50;;;9.10;99.90;;;;;;5066076;28;20193;-82
2021/12/01 11:41:10;;;;;;;0.60;0.60;;;9.00;99.90;;;;;;5079462;28;20197;-82
2021/12/01 11:43:38;;;;;;;0.70;0.50;;;9.00;99.90;;;;;;5072858;28;20200;-82
2021/12/01 11:46:07;;;;;;;1.13;0.50;;;9.10;99.90;;;;;;5070463;28;20236;-82
2021/12/01 11:48:37;;;;;;;2.58;0.93;;;9.20;99.90;;;;;;5067485;28;20197;-82
2021/12/01 11:51:14;;;;;;;1.10;0.60;;;9.20;99.90;;;;;;5073818;28;20296;-82
2021/12/01 11:53:44;;;;;;;0.70;0.60;;;9.30;99.90;;;;;;5086837;28;20223;-81
2021/12/01 11:56:17;;;;;;;0.50;0.50;;;9.30;99.90;;;;;;5072943;28;20695;-82
2021/12/01 11:58:54;;;;;;;0.50;0.40;;;9.50;99.90;;;;;;5063460;28;20276;-82
2021/12/01 12:01:40;;;;;;;0.90;0.60;;;9.50;99.90;;;;;;5065106;28;20193;-80
2021/12/01 12:04:40;;;;;;;0.70;0.60;;;9.60;99.90;;;;;;5068535;28;20231;-80
2021/12/01 12:07:11;;;;;;;2.15;0.55;;;9.70;99.90;;;;;;5064251;28;20675;-79
2021/12/01 12:09:39;;;;;;;1.20;0.60;;;9.90;99.90;;;;;;5058249;28;20258;-80
2021/12/01 12:12:21;;;;;;;0.80;0.50;;;9.90;99.90;;;;;;5064992;28;20303;-80
2021/12/01 12:14:54;;;;;;;0.80;0.50;;;10.00;99.90;;;;;;5066221;28;20189;-79
2021/12/01 12:17:31;;;;;;;1.77;0.50;;;10.00;99.90;;;;;;5060925;28;20224;-77
2021/12/01 12:20:02;;;;;;;0.60;0.55;;;10.10;99.90;;;;;;5064000;28;20227;-80
2021/12/01 12:22:54;;;;;;;0.60;0.50;;;10.20;99.90;;;;;;5066509;28;20197;-81
2021/12/01 12:25:54;;;;;;;0.60;0.40;;;10.40;99.90;;;;;;5062236;28;20201;-80
2021/12/01 12:28:30;;;;;;;0.63;0.50;;;10.90;99.90;;;;;;4980243;28;20198;-80
2021/12/01 12:31:00;;;;;;;1.48;0.57;;;11.10;99.90;;;;;;5057848;28;20253;-81
2021/12/01 12:33:31;;;;;;;1.60;0.60;;;11.40;99.90;;;;;;5069101;28;20233;-80
2021/12/01 12:36:01;;;;;;;0.68;0.52;;;11.60;99.90;;;;;;5064149;28;20218;-81
2021/12/01 12:38:29;;;;;;;0.60;0.40;;;11.60;99.90;;;;;;5066108;28;20200;-80
2021/12/01 12:41:09;;;;;;;0.60;0.60;;;11.40;99.90;;;;;;5069328;28;20197;-81
2021/12/01 12:43:37;;;;;;;0.90;0.60;;;11.20;99.90;;;;;;5067332;28;20261;-80
2021/12/01 12:46:08;;;;;;;0.50;0.40;;;10.90;99.90;;;;;;5064380;28;20224;-80
2021/12/01 12:48:37;;;;;;;0.80;0.80;;;10.70;99.90;;;;;;5072367;28;20219;-79
2021/12/01 12:51:13;;;;;;;0.85;0.60;;;10.60;99.90;;;;;;5071244;28;20204;-81
2021/12/01 12:54:16;;;;;;;0.60;0.50;;;10.50;99.90;;;;;;5066513;28;20353;-80
2021/12/01 12:56:53;;;;;;;0.70;0.60;;;10.40;99.90;;;;;;5066321;28;20694;-82
2021/12/01 12:59:29;;;;;;;0.70;0.60;;;10.20;99.90;;;;;;5064458;28;20207;-78
2021/12/01 13:02:17;;;;;;;0.80;0.60;;;10.10;99.90;;;;;;5061194;28;20200;-82
2021/12/01 13:04:57;;;;;;;0.70;0.60;;;10.00;99.90;;;;;;5068876;28;20648;-82
2021/12/01 13:07:43;;;;;;;1.40;0.70;;;9.90;99.90;;;;;;5070599;28;20216;-81
2021/12/01 13:10:15;;;;;;;0.90;0.57;;;9.90;99.90;;;;;;5064484;28;20279;-80
2021/12/01 13:12:53;;;;;;;1.35;0.60;;;9.80;99.90;;;;;;5069418;28;20628;-80